sensor_id;sensor_type;location;lat;lon;timestamp;P1;durP1;ratioP1;P2;durP2;ratioP2
60257;SDS011;46115;44.484;11.314;2023-04-25T00:03:46;11.18;;;2.63;;
60257;SDS011;46115;44.484;11.314;2023-04-25T00:11:50;13.13;;;2.63;;
60257;SDS011;46115;44.484;11.314;2023-04-25T00:15:54;10.40;;;2.20;;
60257;SDS011;46115;44.484;11.314;2023-04-25T00:19:57;9.27;;;2.33;;
60257;SDS011;46115;44.484;11.314;2023-04-25T00:23:59;9.50;;;2.00;;
60257;SDS011;46115;44.484;11.314;2023-04-25T00:32:05;11.43;;;2.33;;
60257;SDS011;46115;44.484;11.314;2023-04-25T00:36:07;12.90;;;2.53;;
60257;SDS011;46115;44.484;11.314;2023-04-25T00:40:10;11.02;;;2.50;;
60257;SDS011;46115;44.484;11.314;2023-04-25T00:44:13;11.68;;;2.53;;
60257;SDS011;46115;44.484;11.314;2023-04-25T00:48:19;10.57;;;2.20;;
60257;SDS011;46115;44.484;11.314;2023-04-25T00:52:23;15.48;;;2.90;;
60257;SDS011;46115;44.484;11.314;2023-04-25T00:56:26;12.60;;;2.38;;
60257;SDS011;46115;44.484;11.314;2023-04-25T01:00:28;10.05;;;1.90;;
60257;SDS011;46115;44.484;11.314;2023-04-25T01:04:32;10.55;;;2.47;;
60257;SDS011;46115;44.484;11.314;2023-04-25T01:08:36;10.00;;;2.25;;
60257;SDS011;46115;44.484;11.314;2023-04-25T01:12:40;9.32;;;2.13;;
60257;SDS011;46115;44.484;11.314;2023-04-25T01:16:42;11.80;;;2.60;;
60257;SDS011;46115;44.484;11.314;2023-04-25T01:20:47;10.90;;;2.35;;
60257;SDS011;46115;44.484;11.314;2023-04-25T01:24:55;14.15;;;2.40;;
60257;SDS011;46115;44.484;11.314;2023-04-25T01:28:57;11.02;;;2.15;;
60257;SDS011;46115;44.484;11.314;2023-04-25T01:33:01;9.45;;;2.25;;
60257;SDS011;46115;44.484;11.314;2023-04-25T01:37:06;8.52;;;2.00;;
60257;SDS011;46115;44.484;11.314;2023-04-25T01:41:09;9.05;;;2.10;;
60257;SDS011;46115;44.484;11.314;2023-04-25T01:45:13;9.25;;;1.98;;
60257;SDS011;46115;44.484;11.314;2023-04-25T01:49:15;7.47;;;2.00;;
60257;SDS011;46115;44.484;11.314;2023-04-25T01:53:20;11.18;;;2.10;;
60257;SDS011;46115;44.484;11.314;2023-04-25T01:57:24;9.65;;;2.05;;
60257;SDS011;46115;44.484;11.314;2023-04-25T02:01:27;7.13;;;2.25;;
60257;SDS011;46115;44.484;11.314;2023-04-25T02:05:46;9.23;;;2.17;;
60257;SDS011;46115;44.484;11.314;2023-04-25T02:09:49;7.95;;;2.10;;
60257;SDS011;46115;44.484;11.314;2023-04-25T02:13:55;10.85;;;2.38;;
60257;SDS011;46115;44.484;11.314;2023-04-25T02:18:21;10.60;;;2.10;;
60257;SDS011;46115;44.484;11.314;2023-04-25T02:26:27;6.97;;;2.20;;
60257;SDS011;46115;44.484;11.314;2023-04-25T02:34:32;7.10;;;1.88;;
60257;SDS011;46115;44.484;11.314;2023-04-25T02:38:35;10.13;;;2.47;;
60257;SDS011;46115;44.484;11.314;2023-04-25T02:42:39;12.98;;;2.20;;
60257;SDS011;46115;44.484;11.314;2023-04-25T02:50:44;6.13;;;1.90;;
60257;SDS011;46115;44.484;11.314;2023-04-25T02:58:49;8.13;;;2.10;;
60257;SDS011;46115;44.484;11.314;2023-04-25T03:06:55;5.78;;;1.92;;
60257;SDS011;46115;44.484;11.314;2023-04-25T03:15:00;14.10;;;2.40;;
60257;SDS011;46115;44.484;11.314;2023-04-25T03:19:04;10.05;;;2.28;;
60257;SDS011;46115;44.484;11.314;2023-04-25T03:23:07;9.30;;;2.05;;
60257;SDS011;46115;44.484;11.314;2023-04-25T03:27:09;8.60;;;2.22;;
60257;SDS011;46115;44.484;11.314;2023-04-25T03:31:12;9.32;;;2.00;;
60257;SDS011;46115;44.484;11.314;2023-04-25T03:35:16;6.47;;;2.10;;
60257;SDS011;46115;44.484;11.314;2023-04-25T03:39:18;9.75;;;2.20;;
60257;SDS011;46115;44.484;11.314;2023-04-25T03:43:24;10.85;;;2.10;;
60257;SDS011;46115;44.484;11.314;2023-04-25T03:47:32;10.90;;;2.30;;
60257;SDS011;46115;44.484;11.314;2023-04-25T03:51:36;9.57;;;2.20;;
60257;SDS011;46115;44.484;11.314;2023-04-25T03:55:39;7.10;;;2.40;;
60257;SDS011;46115;44.484;11.314;2023-04-25T03:59:42;7.60;;;2.20;;
60257;SDS011;46115;44.484;11.314;2023-04-25T04:03:47;9.05;;;2.88;;
60257;SDS011;46115;44.484;11.314;2023-04-25T04:07:52;8.73;;;2.50;;
60257;SDS011;46115;44.484;11.314;2023-04-25T04:11:54;9.20;;;3.05;;
60257;SDS011;46115;44.484;11.314;2023-04-25T04:15:57;10.07;;;2.42;;
60257;SDS011;46115;44.484;11.314;2023-04-25T04:19:59;9.32;;;2.50;;
60257;SDS011;46115;44.484;11.314;2023-04-25T04:24:07;9.43;;;2.63;;
60257;SDS011;46115;44.484;11.314;2023-04-25T04:28:22;7.72;;;2.72;;
60257;SDS011;46115;44.484;11.314;2023-04-25T04:32:45;7.25;;;3.00;;
60257;SDS011;46115;44.484;11.314;2023-04-25T04:36:47;10.07;;;2.97;;
60257;SDS011;46115;44.484;11.314;2023-04-25T04:40:51;6.32;;;3.10;;
60257;SDS011;46115;44.484;11.314;2023-04-25T04:45:08;5.93;;;2.70;;
60257;SDS011;46115;44.484;11.314;2023-04-25T04:49:29;6.95;;;2.55;;
60257;SDS011;46115;44.484;11.314;2023-04-25T04:53:51;6.65;;;2.30;;
60257;SDS011;46115;44.484;11.314;2023-04-25T05:02:21;5.22;;;2.00;;
60257;SDS011;46115;44.484;11.314;2023-04-25T05:06:37;6.85;;;2.25;;
60257;SDS011;46115;44.484;11.314;2023-04-25T05:11:14;7.47;;;2.15;;
60257;SDS011;46115;44.484;11.314;2023-04-25T05:15:34;10.32;;;2.17;;
60257;SDS011;46115;44.484;11.314;2023-04-25T05:19:56;9.43;;;1.90;;
60257;SDS011;46115;44.484;11.314;2023-04-25T05:24:19;8.35;;;1.98;;
60257;SDS011;46115;44.484;11.314;2023-04-25T05:28:47;6.45;;;2.00;;
60257;SDS011;46115;44.484;11.314;2023-04-25T05:37:13;8.25;;;2.17;;
60257;SDS011;46115;44.484;11.314;2023-04-25T05:41:27;8.30;;;2.40;;
60257;SDS011;46115;44.484;11.314;2023-04-25T05:45:34;7.10;;;2.00;;
60257;SDS011;46115;44.484;11.314;2023-04-25T05:49:57;8.45;;;2.10;;
60257;SDS011;46115;44.484;11.314;2023-04-25T05:54:17;6.90;;;2.20;;
60257;SDS011;46115;44.484;11.314;2023-04-25T05:58:20;6.78;;;2.00;;
60257;SDS011;46115;44.484;11.314;2023-04-25T06:02:23;8.27;;;2.47;;
60257;SDS011;46115;44.484;11.314;2023-04-25T06:06:28;6.22;;;2.00;;
60257;SDS011;46115;44.484;11.314;2023-04-25T06:10:33;8.48;;;2.67;;
60257;SDS011;46115;44.484;11.314;2023-04-25T06:18:37;7.53;;;2.65;;
60257;SDS011;46115;44.484;11.314;2023-04-25T06:22:41;10.20;;;2.50;;
60257;SDS011;46115;44.484;11.314;2023-04-25T06:26:44;7.75;;;2.50;;
60257;SDS011;46115;44.484;11.314;2023-04-25T06:30:48;8.80;;;3.05;;
60257;SDS011;46115;44.484;11.314;2023-04-25T06:34:53;6.93;;;3.50;;
60257;SDS011;46115;44.484;11.314;2023-04-25T06:38:58;10.95;;;3.80;;
60257;SDS011;46115;44.484;11.314;2023-04-25T06:43:01;10.27;;;5.90;;
60257;SDS011;46115;44.484;11.314;2023-04-25T06:47:21;9.65;;;6.43;;
60257;SDS011;46115;44.484;11.314;2023-04-25T06:51:24;9.23;;;6.80;;
60257;SDS011;46115;44.484;11.314;2023-04-25T06:55:31;9.43;;;6.75;;
60257;SDS011;46115;44.484;11.314;2023-04-25T06:59:47;12.73;;;7.78;;
60257;SDS011;46115;44.484;11.314;2023-04-25T07:03:50;13.90;;;8.63;;
60257;SDS011;46115;44.484;11.314;2023-04-25T07:07:54;14.30;;;9.07;;
60257;SDS011;46115;44.484;11.314;2023-04-25T07:11:57;10.40;;;8.35;;
60257;SDS011;46115;44.484;11.314;2023-04-25T07:16:01;11.75;;;8.85;;
60257;SDS011;46115;44.484;11.314;2023-04-25T07:20:06;11.88;;;9.05;;
60257;SDS011;46115;44.484;11.314;2023-04-25T07:24:10;16.73;;;10.38;;
60257;SDS011;46115;44.484;11.314;2023-04-25T07:28:18;14.43;;;8.68;;
60257;SDS011;46115;44.484;11.314;2023-04-25T07:32:22;8.20;;;6.05;;
60257;SDS011;46115;44.484;11.314;2023-04-25T07:36:24;6.53;;;4.25;;
60257;SDS011;46115;44.484;11.314;2023-04-25T07:40:27;7.30;;;4.30;;
60257;SDS011;46115;44.484;11.314;2023-04-25T07:44:36;11.00;;;4.30;;
60257;SDS011;46115;44.484;11.314;2023-04-25T07:48:42;8.43;;;5.03;;
60257;SDS011;46115;44.484;11.314;2023-04-25T07:52:44;8.65;;;4.85;;
60257;SDS011;46115;44.484;11.314;2023-04-25T07:56:53;8.95;;;5.20;;
60257;SDS011;46115;44.484;11.314;2023-04-25T08:01:02;8.98;;;5.22;;
60257;SDS011;46115;44.484;11.314;2023-04-25T08:05:18;5.65;;;4.70;;
60257;SDS011;46115;44.484;11.314;2023-04-25T08:09:25;5.95;;;4.20;;
60257;SDS011;46115;44.484;11.314;2023-04-25T08:13:29;9.52;;;5.05;;
60257;SDS011;46115;44.484;11.314;2023-04-25T08:17:34;13.98;;;5.10;;
60257;SDS011;46115;44.484;11.314;2023-04-25T08:21:37;6.65;;;4.00;;
60257;SDS011;46115;44.484;11.314;2023-04-25T08:25:43;5.75;;;4.00;;
60257;SDS011;46115;44.484;11.314;2023-04-25T08:29:48;6.70;;;4.20;;
60257;SDS011;46115;44.484;11.314;2023-04-25T08:33:53;7.70;;;4.82;;
60257;SDS011;46115;44.484;11.314;2023-04-25T08:38:01;8.43;;;5.85;;
60257;SDS011;46115;44.484;11.314;2023-04-25T08:42:05;7.50;;;5.13;;
60257;SDS011;46115;44.484;11.314;2023-04-25T08:46:09;10.57;;;6.30;;
60257;SDS011;46115;44.484;11.314;2023-04-25T08:50:42;9.98;;;6.05;;
60257;SDS011;46115;44.484;11.314;2023-04-25T08:54:47;8.02;;;5.68;;
60257;SDS011;46115;44.484;11.314;2023-04-25T08:58:52;9.32;;;5.93;;
60257;SDS011;46115;44.484;11.314;2023-04-25T09:02:56;3.72;;;2.00;;
60257;SDS011;46115;44.484;11.314;2023-04-25T09:07:05;3.08;;;1.50;;
60257;SDS011;46115;44.484;11.314;2023-04-25T09:11:08;4.05;;;1.40;;
60257;SDS011;46115;44.484;11.314;2023-04-25T09:15:12;7.53;;;1.30;;
60257;SDS011;46115;44.484;11.314;2023-04-25T09:19:41;2.83;;;1.10;;
60257;SDS011;46115;44.484;11.314;2023-04-25T09:23:53;3.65;;;1.10;;
60257;SDS011;46115;44.484;11.314;2023-04-25T09:27:55;4.57;;;0.98;;
60257;SDS011;46115;44.484;11.314;2023-04-25T09:32:14;2.83;;;0.70;;
60257;SDS011;46115;44.484;11.314;2023-04-25T09:36:18;2.88;;;1.00;;
60257;SDS011;46115;44.484;11.314;2023-04-25T09:40:40;1.45;;;0.60;;
60257;SDS011;46115;44.484;11.314;2023-04-25T09:44:51;3.28;;;0.50;;
60257;SDS011;46115;44.484;11.314;2023-04-25T09:48:55;1.58;;;0.60;;
60257;SDS011;46115;44.484;11.314;2023-04-25T09:53:04;0.75;;;0.45;;
60257;SDS011;46115;44.484;11.314;2023-04-25T09:57:35;1.77;;;0.47;;
60257;SDS011;46115;44.484;11.314;2023-04-25T10:01:41;0.73;;;0.43;;
60257;SDS011;46115;44.484;11.314;2023-04-25T10:05:58;0.85;;;0.40;;
60257;SDS011;46115;44.484;11.314;2023-04-25T10:10:03;3.13;;;0.50;;
60257;SDS011;46115;44.484;11.314;2023-04-25T10:14:08;2.17;;;0.43;;
60257;SDS011;46115;44.484;11.314;2023-04-25T10:18:11;0.82;;;0.50;;
60257;SDS011;46115;44.484;11.314;2023-04-25T10:22:14;1.80;;;0.47;;
60257;SDS011;46115;44.484;11.314;2023-04-25T10:26:22;0.82;;;0.40;;
60257;SDS011;46115;44.484;11.314;2023-04-25T10:30:26;1.80;;;0.40;;
60257;SDS011;46115;44.484;11.314;2023-04-25T10:34:38;1.73;;;0.50;;
60257;SDS011;46115;44.484;11.314;2023-04-25T10:38:42;1.42;;;0.60;;
60257;SDS011;46115;44.484;11.314;2023-04-25T10:42:44;0.93;;;0.50;;
60257;SDS011;46115;44.484;11.314;2023-04-25T10:50:50;1.85;;;0.50;;
60257;SDS011;46115;44.484;11.314;2023-04-25T10:55:08;1.13;;;0.40;;
60257;SDS011;46115;44.484;11.314;2023-04-25T10:59:11;1.42;;;0.60;;
60257;SDS011;46115;44.484;11.314;2023-04-25T11:03:16;2.58;;;0.60;;
60257;SDS011;46115;44.484;11.314;2023-04-25T11:07:20;0.93;;;0.57;;
60257;SDS011;46115;44.484;11.314;2023-04-25T11:11:30;0.98;;;0.60;;
60257;SDS011;46115;44.484;11.314;2023-04-25T11:15:32;2.75;;;0.60;;
60257;SDS011;46115;44.484;11.314;2023-04-25T11:23:38;2.55;;;0.80;;
60257;SDS011;46115;44.484;11.314;2023-04-25T11:27:49;0.93;;;0.60;;
60257;SDS011;46115;44.484;11.314;2023-04-25T11:31:52;2.40;;;0.80;;
60257;SDS011;46115;44.484;11.314;2023-04-25T11:35:55;2.17;;;0.60;;
60257;SDS011;46115;44.484;11.314;2023-04-25T11:39:58;1.23;;;0.70;;
60257;SDS011;46115;44.484;11.314;2023-04-25T11:48:02;0.85;;;0.57;;
60257;SDS011;46115;44.484;11.314;2023-04-25T11:52:07;3.63;;;0.60;;
60257;SDS011;46115;44.484;11.314;2023-04-25T11:56:09;1.00;;;0.70;;
60257;SDS011;46115;44.484;11.314;2023-04-25T12:00:13;0.63;;;0.40;;
60257;SDS011;46115;44.484;11.314;2023-04-25T12:04:18;0.70;;;0.50;;
60257;SDS011;46115;44.484;11.314;2023-04-25T12:08:23;0.82;;;0.40;;
60257;SDS011;46115;44.484;11.314;2023-04-25T12:12:27;0.90;;;0.30;;
60257;SDS011;46115;44.484;11.314;2023-04-25T12:16:29;0.43;;;0.40;;
60257;SDS011;46115;44.484;11.314;2023-04-25T12:20:32;1.27;;;0.20;;
60257;SDS011;46115;44.484;11.314;2023-04-25T12:24:35;0.30;;;0.30;;
60257;SDS011;46115;44.484;11.314;2023-04-25T12:28:38;0.70;;;0.28;;
60257;SDS011;46115;44.484;11.314;2023-04-25T12:32:40;1.50;;;0.30;;
60257;SDS011;46115;44.484;11.314;2023-04-25T12:36:42;1.80;;;0.40;;
60257;SDS011;46115;44.484;11.314;2023-04-25T12:40:46;0.60;;;0.40;;
60257;SDS011;46115;44.484;11.314;2023-04-25T12:44:48;1.27;;;0.30;;
60257;SDS011;46115;44.484;11.314;2023-04-25T12:52:53;3.00;;;0.40;;
60257;SDS011;46115;44.484;11.314;2023-04-25T12:56:56;1.02;;;0.50;;
60257;SDS011;46115;44.484;11.314;2023-04-25T13:00:59;0.90;;;0.45;;
60257;SDS011;46115;44.484;11.314;2023-04-25T13:05:01;0.38;;;0.30;;
60257;SDS011;46115;44.484;11.314;2023-04-25T13:09:04;0.45;;;0.30;;
60257;SDS011;46115;44.484;11.314;2023-04-25T13:13:08;0.73;;;0.40;;
60257;SDS011;46115;44.484;11.314;2023-04-25T13:17:11;0.63;;;0.30;;
60257;SDS011;46115;44.484;11.314;2023-04-25T13:21:13;2.42;;;0.40;;
60257;SDS011;46115;44.484;11.314;2023-04-25T13:29:19;2.72;;;1.25;;
60257;SDS011;46115;44.484;11.314;2023-04-25T13:33:21;0.77;;;0.32;;
60257;SDS011;46115;44.484;11.314;2023-04-25T13:41:25;1.55;;;0.40;;
60257;SDS011;46115;44.484;11.314;2023-04-25T13:45:29;0.60;;;0.38;;
60257;SDS011;46115;44.484;11.314;2023-04-25T13:49:31;0.95;;;0.30;;
60257;SDS011;46115;44.484;11.314;2023-04-25T13:57:36;2.53;;;0.63;;
60257;SDS011;46115;44.484;11.314;2023-04-25T14:01:39;3.22;;;0.60;;
60257;SDS011;46115;44.484;11.314;2023-04-25T14:05:42;3.67;;;0.50;;
60257;SDS011;46115;44.484;11.314;2023-04-25T14:13:46;2.40;;;0.50;;
60257;SDS011;46115;44.484;11.314;2023-04-25T14:17:51;5.35;;;0.80;;
60257;SDS011;46115;44.484;11.314;2023-04-25T14:21:53;5.78;;;0.77;;
60257;SDS011;46115;44.484;11.314;2023-04-25T14:29:57;2.17;;;0.65;;
60257;SDS011;46115;44.484;11.314;2023-04-25T14:34:01;5.57;;;0.95;;
60257;SDS011;46115;44.484;11.314;2023-04-25T14:38:04;5.00;;;0.90;;
60257;SDS011;46115;44.484;11.314;2023-04-25T14:42:06;4.05;;;0.70;;
60257;SDS011;46115;44.484;11.314;2023-04-25T14:50:14;1.13;;;0.50;;
60257;SDS011;46115;44.484;11.314;2023-04-25T14:54:16;1.30;;;0.50;;
60257;SDS011;46115;44.484;11.314;2023-04-25T15:02:20;1.63;;;0.50;;
60257;SDS011;46115;44.484;11.314;2023-04-25T15:06:24;2.17;;;0.60;;
60257;SDS011;46115;44.484;11.314;2023-04-25T15:10:29;4.63;;;0.60;;
60257;SDS011;46115;44.484;11.314;2023-04-25T15:14:31;3.97;;;0.60;;
60257;SDS011;46115;44.484;11.314;2023-04-25T15:18:34;3.03;;;0.60;;
60257;SDS011;46115;44.484;11.314;2023-04-25T15:26:41;7.65;;;0.70;;
60257;SDS011;46115;44.484;11.314;2023-04-25T15:34:45;4.63;;;0.52;;
60257;SDS011;46115;44.484;11.314;2023-04-25T15:42:52;3.63;;;0.60;;
60257;SDS011;46115;44.484;11.314;2023-04-25T15:46:54;4.18;;;0.60;;
60257;SDS011;46115;44.484;11.314;2023-04-25T15:50:57;5.07;;;0.77;;
60257;SDS011;46115;44.484;11.314;2023-04-25T15:59:04;3.53;;;0.90;;
60257;SDS011;46115;44.484;11.314;2023-04-25T16:03:06;5.57;;;0.85;;
60257;SDS011;46115;44.484;11.314;2023-04-25T16:07:09;7.80;;;0.90;;
60257;SDS011;46115;44.484;11.314;2023-04-25T16:11:12;4.03;;;0.73;;
60257;SDS011;46115;44.484;11.314;2023-04-25T16:15:15;6.03;;;0.95;;
60257;SDS011;46115;44.484;11.314;2023-04-25T16:19:17;5.32;;;0.90;;
60257;SDS011;46115;44.484;11.314;2023-04-25T16:27:23;4.95;;;0.70;;
60257;SDS011;46115;44.484;11.314;2023-04-25T16:31:25;8.48;;;1.10;;
60257;SDS011;46115;44.484;11.314;2023-04-25T16:39:32;5.63;;;0.88;;
60257;SDS011;46115;44.484;11.314;2023-04-25T16:47:40;6.20;;;0.85;;
60257;SDS011;46115;44.484;11.314;2023-04-25T16:55:44;5.57;;;0.95;;
60257;SDS011;46115;44.484;11.314;2023-04-25T16:59:48;4.13;;;1.80;;
60257;SDS011;46115;44.484;11.314;2023-04-25T17:03:51;7.95;;;1.25;;
60257;SDS011;46115;44.484;11.314;2023-04-25T17:11:56;6.38;;;1.38;;
60257;SDS011;46115;44.484;11.314;2023-04-25T17:16:00;8.82;;;1.23;;
60257;SDS011;46115;44.484;11.314;2023-04-25T17:20:03;6.53;;;1.20;;
60257;SDS011;46115;44.484;11.314;2023-04-25T17:24:07;9.23;;;1.58;;
60257;SDS011;46115;44.484;11.314;2023-04-25T17:28:11;8.23;;;1.30;;
60257;SDS011;46115;44.484;11.314;2023-04-25T17:32:15;7.78;;;1.50;;
60257;SDS011;46115;44.484;11.314;2023-04-25T17:36:17;6.43;;;1.70;;
60257;SDS011;46115;44.484;11.314;2023-04-25T17:40:19;7.03;;;1.60;;
60257;SDS011;46115;44.484;11.314;2023-04-25T17:44:22;8.48;;;1.42;;
60257;SDS011;46115;44.484;11.314;2023-04-25T17:52:27;6.85;;;1.40;;
60257;SDS011;46115;44.484;11.314;2023-04-25T17:56:30;3.40;;;1.30;;
60257;SDS011;46115;44.484;11.314;2023-04-25T18:04:36;5.10;;;1.40;;
60257;SDS011;46115;44.484;11.314;2023-04-25T18:08:38;12.80;;;2.08;;
60257;SDS011;46115;44.484;11.314;2023-04-25T18:16:43;5.20;;;1.60;;
60257;SDS011;46115;44.484;11.314;2023-04-25T18:20:47;9.52;;;1.95;;
60257;SDS011;46115;44.484;11.314;2023-04-25T18:24:49;7.15;;;2.15;;
60257;SDS011;46115;44.484;11.314;2023-04-25T18:32:54;8.43;;;1.90;;
60257;SDS011;46115;44.484;11.314;2023-04-25T18:36:58;8.45;;;2.25;;
60257;SDS011;46115;44.484;11.314;2023-04-25T18:41:00;8.98;;;2.40;;
60257;SDS011;46115;44.484;11.314;2023-04-25T18:53:09;11.82;;;2.20;;
60257;SDS011;46115;44.484;11.314;2023-04-25T22:06:08;4.03;;;1.90;;
60257;SDS011;46115;44.484;11.314;2023-04-25T22:10:11;3.33;;;1.77;;
60257;SDS011;46115;44.484;11.314;2023-04-25T22:18:16;3.40;;;1.80;;
60257;SDS011;46115;44.484;11.314;2023-04-25T22:22:20;4.25;;;1.92;;
60257;SDS011;46115;44.484;11.314;2023-04-25T22:26:23;3.55;;;2.08;;
60257;SDS011;46115;44.484;11.314;2023-04-25T22:30:25;5.05;;;1.98;;
60257;SDS011;46115;44.484;11.314;2023-04-25T22:34:28;4.60;;;1.90;;
60257;SDS011;46115;44.484;11.314;2023-04-25T22:42:37;2.80;;;2.00;;
60257;SDS011;46115;44.484;11.314;2023-04-25T22:46:40;4.30;;;1.88;;
60257;SDS011;46115;44.484;11.314;2023-04-25T22:50:43;3.42;;;1.85;;
60257;SDS011;46115;44.484;11.314;2023-04-25T22:54:47;4.65;;;2.17;;
60257;SDS011;46115;44.484;11.314;2023-04-25T22:58:50;4.72;;;1.95;;
60257;SDS011;46115;44.484;11.314;2023-04-25T23:06:54;4.03;;;1.95;;
60257;SDS011;46115;44.484;11.314;2023-04-25T23:15:00;3.90;;;1.90;;
60257;SDS011;46115;44.484;11.314;2023-04-25T23:19:03;4.18;;;1.92;;
60257;SDS011;46115;44.484;11.314;2023-04-25T23:27:09;3.88;;;1.98;;
60257;SDS011;46115;44.484;11.314;2023-04-25T23:31:11;4.82;;;1.92;;
60257;SDS011;46115;44.484;11.314;2023-04-25T23:39:16;4.72;;;2.03;;
60257;SDS011;46115;44.484;11.314;2023-04-25T23:43:20;4.00;;;2.22;;
60257;SDS011;46115;44.484;11.314;2023-04-25T23:47:22;5.07;;;2.10;;
60257;SDS011;46115;44.484;11.314;2023-04-25T23:55:27;3.97;;;2.00;;
